Flight Track Log - Related Links

Times and Time Zones

All times are in EST time to prevent confusion due to time zone crossing. See the RPA3497 flight status page for this flight to view local times or setup timezone preferences in your user account.

Time Position Orientation Groundspeed Altitude Reporting Facility
EST Latitude Longitude Course Direction KTS MPH feet Rate Location/Type
03:39PM 38.9333 -77.1333 311° West 211 243 4,700  Level Potomac TRACON
03:40PM 38.9338 -77.4059 270° West  Level Estimated
03:41PM 38.9540 -77.4981 270° West  Level Estimated
03:41PM 38.9703 -77.2844 287° West 223 257 10,100  Level Washington Center
03:42PM 38.9743 -77.5903 275° West  Level Estimated
03:42PM 38.9650 -77.3669 265° West 238 274 13,300  Level Washington Center
03:43PM 38.9699 -77.6860 267° West  Level FlightAware Approximate
03:43PM 38.9594 -77.4550 265° West 238 274 16,800  Level Washington Center
03:44PM 38.9539 -77.5456 266° West 250 288 17,000 148 Climbing Washington Center
03:45PM 38.9461 -77.6256 263° West 256 295 17,100 756 Climbing Washington Center
03:46PM 38.9444 -77.7294 269° West 256 295 18,500 958 Climbing Washington Center
03:47PM 38.9469 -77.8283 272° West 272 313 19,000 344 Climbing Washington Center
03:48PM 38.9508 -77.9433 273° West 293 337 19,200 1,091 Climbing Washington Center
03:49PM 38.9547 -78.0608 272° West 315 362 21,200 2,390 Climbing Washington Center
03:50PM 38.9586 -78.1758 273° West 329 379 23,900 2,471 Climbing Washington Center
03:51PM 38.9644 -78.2933 274° West 329 379 26,100 1,610 Climbing Washington Center
03:52PM 38.9722 -78.4058 275° West 329 379 27,200 958 Climbing Washington Center
03:53PM 38.9797 -78.5317 274° West 337 388 28,000 407 Climbing Washington Center
03:54PM 38.9889 -78.6575 275° West 350 403 28,000  Level Washington Center
03:55PM 38.9961 -78.7806 274° West 350 403 28,000  Level Washington Center
03:56PM 39.0033 -78.9011 274° West 350 403 28,000  Level Washington Center
03:57PM 39.0103 -79.0244 274° West 350 403 28,000  Level Washington Center
03:58PM 39.0172 -79.1503 274° West 350 403 28,000  Level Washington Center
03:59PM 39.0258 -79.2789 275° West 355 409 28,000  Level Washington Center
04:00PM 39.0347 -79.3944 276° West 349 402 28,000  Level Washington Center
04:01PM 39.0411 -79.5150 274° West 344 396 28,000  Level Washington Center
04:02PM 39.0539 -79.6386 278° West 350 403 28,000  Level Washington Center
04:04PM 39.0633 -79.8792 273° West 336 387 28,000  Level Indianapolis Center
04:05PM 39.0703 -79.9947 274° West 334 384 28,000  Level Indianapolis Center
04:06PM 39.0767 -80.1128 274° West 332 382 28,000  Level Indianapolis Center
04:07PM 39.0833 -80.2297 274° West 329 379 28,000  Level Indianapolis Center
04:08PM 39.0917 -80.3708 274° West 330 380 28,000  Level Indianapolis Center
04:09PM 39.0989 -80.4942 274° West 345 397 28,000  Level Indianapolis Center
04:10PM 39.1236 -80.6172 285° West 362 417 28,000  Level Indianapolis Center
04:11PM 39.1589 -80.7400 290° West 367 422 28,000 -97 Level Indianapolis Center
04:12PM 39.1919 -80.8592 290° West 359 413 27,800 -585 Descending Indianapolis Center
04:13PM 39.2236 -80.9789 289° West 356 410 26,800 -1,122 Descending Indianapolis Center
04:14PM 39.2653 -81.1278 290° West 371 427 25,500 -1,161 Descending Indianapolis Center
04:15PM 39.3008 -81.2603 289° West 391 450 24,400 -1,016 Descending Indianapolis Center
04:16PM 39.3361 -81.3878 290° West 382 440 23,400 -1,161 Descending Indianapolis Center
04:17PM 39.3711 -81.5167 289° West 382 440 22,000 -1,500 Descending Indianapolis Center
04:18PM 39.4028 -81.6414 288° West 369 425 20,300 -1,597 Descending Indianapolis Center
04:19PM 39.4353 -81.7575 290° West 349 402 18,700 -1,694 Descending Indianapolis Center
04:20PM 39.4725 -81.8967 289° West 342 394 16,800 -1,694 Descending Indianapolis Center
04:21PM 39.5019 -82.0092 289° West 332 382 15,200 -1,500 Descending Indianapolis Center
04:22PM 39.5314 -82.1203 289° West 328 377 13,700 -1,524 Descending Indianapolis Center
04:22PM 39.5336 -82.1333 282° West 329 379 13,600 -1,636 Descending Indianapolis Center
04:23PM 39.5542 -82.2094 289° West 330 380 12,500 -1,377 Descending Indianapolis Center
04:24PM 39.5594 -82.2306 288° West 330 380 12,200 -1,275 Descending Indianapolis Center
04:25PM 39.6403 -82.2883 331° Northwest 342 394 10,800 -1,212 Descending Indianapolis Center
04:25PM 39.7056 -82.3217 339° North 289 333 10,100 -1,355 Descending Indianapolis Center
04:26PM 39.7303 -82.3331 340° North 292 336 9,400 -1,900 Descending Indianapolis Center
04:26PM 39.7781 -82.3572 339° North 267 307 8,200 -1,645 Descending Indianapolis Center
04:27PM 39.8011 -82.3678 341° North 276 318 7,700 -1,745 Descending Indianapolis Center
04:27PM 39.8400 -82.3911 335° Northwest 267 307 6,600 -1,645 Descending Indianapolis Center
04:28PM 39.8689 -82.4031 342° North 267 307 6,000 -590 Descending Indianapolis Center
04:28PM 39.9083 -82.4258 336° Northwest 263 303 6,000 -290 Level Indianapolis Center
04:29PM 39.9339 -82.4422 334° Northwest 262 302 5,700 -1,180 Descending Indianapolis Center
04:29PM 39.9594 -82.4883 306° West 250 288 4,800 -1,548 Descending Indianapolis Center
04:30PM 39.9750 -82.5144 308° West 252 290 4,100 -787 Descending Indianapolis Center
04:30PM 39.9819 -82.5628 281° West 229 264 4,000 -97 Descending Indianapolis Center
04:31PM 39.9839 -82.5903 275° West 226 260 4,000  Level Indianapolis Center
04:31PM 39.9864 -82.6289 275° West 168 193 4,000  Level Indianapolis Center
04:32PM 39.9889 -82.6658 275° West 189 217 4,000 -393 Level Indianapolis Center
04:32PM 39.9906 -82.6978 274° West 175 201 3,600 -871 Descending Indianapolis Center
04:33PM 39.9928 -82.7319 275° West 184 212 3,100 -984 Descending Indianapolis Center
04:33PM 39.9944 -82.7667 274° West 187 215 2,600 -871 Descending Indianapolis Center
04:34PM 39.9967 -82.7969 275° West 182 209 2,200 -787 Descending Indianapolis Center
04:34PM 39.9978 -82.8219 273° West 145 167 1,800 -787 Descending Indianapolis Center
04:35PM 39.9997 -82.8461 276° West 155 178 1,400 -689 Descending Indianapolis Center
04:35PM 39.9994 -82.8714 269° West 129 148 1,100 -97 Descending Indianapolis Center
04:36PM 40.0028 -82.8944 281° West 151 174 1,300 333 Climbing Indianapolis Center

Login

Don't have an account? Register now (free) for customized features, flight alerts, and more!